Time;durP1;ratioP1;P1;durP2;ratioP2;P2;SDS_P1;SDS_P2;PMS_P1;PMS_P2;Temp;Humidity;BMP_temperature;BMP_pressure;BME280_temperature;BME280_humidity;BME280_pressure;Samples;Min_cycle;Max_cycle;Signal;HPM_P1;HPM_P2
2023/06/13 00:01:48;;;;;;;0.00;0.00;;;;;;;;;;6160637;23;20379;-77
2023/06/13 00:04:34;;;;;;;0.00;0.00;;;;;;;;;;6160745;23;20043;-77
2023/06/13 00:07:22;;;;;;;0.00;0.00;;;;;;;;;;6161705;23;20024;-77
2023/06/13 00:10:07;;;;;;;0.00;0.00;;;;;;;;;;6160270;23;20044;-77
2023/06/13 00:12:53;;;;;;;0.00;0.00;;;;;;;;;;6163860;23;20017;-77
2023/06/13 00:15:49;;;;;;;0.00;0.00;;;;;;;;;;6162452;23;20021;-77
2023/06/13 00:18:37;;;;;;;0.00;0.00;;;;;;;;;;6160786;23;20024;-77
2023/06/13 00:21:24;;;;;;;0.00;0.00;;;;;;;;;;6161416;23;20112;-77
2023/06/13 00:24:10;;;;;;;0.00;0.00;;;;;;;;;;6162111;23;20084;-78
2023/06/13 00:26:56;;;;;;;0.00;0.00;;;;;;;;;;6160633;23;20112;-78
2023/06/13 00:29:42;;;;;;;0.00;0.00;;;;;;;;;;6160594;23;20012;-78
2023/06/13 00:32:28;;;;;;;0.00;0.00;;;;;;;;;;6161669;23;20342;-77
2023/06/13 00:35:15;;;;;;;0.00;0.00;;;;;;;;;;6161416;23;20044;-78
2023/06/13 00:38:02;;;;;;;0.00;0.00;;;;;;;;;;6160628;23;20013;-78
2023/06/13 00:40:47;;;;;;;0.00;0.00;;;;;;;;;;6159622;23;20009;-78
2023/06/13 00:43:34;;;;;;;0.00;0.00;;;;;;;;;;6161802;23;20769;-79
2023/06/13 00:46:32;;;;;;;0.00;0.00;;;;;;;;;;6162869;23;20068;-78
2023/06/13 00:49:19;;;;;;;0.00;0.00;;;;;;;;;;6161212;23;20021;-79
2023/06/13 00:52:05;;;;;;;0.00;0.00;;;;;;;;;;6159845;23;20202;-78
2023/06/13 00:54:51;;;;;;;0.00;0.00;;;;;;;;;;6158861;23;20476;-78
2023/06/13 00:57:38;;;;;;;0.00;0.00;;;;;;;;;;6160616;23;20021;-78
2023/06/13 01:00:25;;;;;;;0.00;0.00;;;;;;;;;;6159654;23;20045;-78
2023/06/13 01:03:15;;;;;;;0.00;0.00;;;;;;;;;;6135747;23;20128;-77
2023/06/13 01:06:01;;;;;;;0.00;0.00;;;;;;;;;;6158261;23;20009;-77
2023/06/13 01:08:47;;;;;;;0.00;0.00;;;;;;;;;;6159554;23;20327;-77
2023/06/13 01:11:52;;;;;;;0.00;0.00;;;;;;;;;;6161835;23;20009;-77
2023/06/13 01:14:43;;;;;;;0.00;0.00;;;;;;;;;;6162634;23;20021;-77
2023/06/13 01:17:33;;;;;;;0.00;0.00;;;;;;;;;;6160124;23;20075;-77
2023/06/13 01:20:20;;;;;;;0.00;0.00;;;;;;;;;;6160736;23;20546;-77
2023/06/13 01:23:06;;;;;;;0.10;0.10;;;;;;;;;;6159708;23;20715;-77
2023/06/13 01:26:10;;;;;;;0.00;0.00;;;;;;;;;;6160241;23;20013;-77
2023/06/13 01:28:57;;;;;;;0.00;0.00;;;;;;;;;;6141848;23;20704;-77
2023/06/13 01:31:46;;;;;;;0.03;0.03;;;;;;;;;;6161232;23;20048;-77
2023/06/13 01:34:32;;;;;;;0.00;0.00;;;;;;;;;;6162079;23;20449;-77
2023/06/13 01:37:18;;;;;;;0.00;0.00;;;;;;;;;;6162264;23;20096;-77
2023/06/13 01:40:04;;;;;;;0.00;0.00;;;;;;;;;;6161520;23;20056;-77
2023/06/13 01:42:53;;;;;;;0.00;0.00;;;;;;;;;;6161683;23;20028;-78
2023/06/13 01:45:40;;;;;;;0.00;0.00;;;;;;;;;;6165675;23;20013;-78
2023/06/13 01:48:52;;;;;;;0.00;0.00;;;;;;;;;;6163711;23;20017;-77
2023/06/13 01:51:41;;;;;;;0.00;0.00;;;;;;;;;;6157808;23;20048;-78
2023/06/13 01:54:28;;;;;;;0.08;0.08;;;;;;;;;;6162429;23;20024;-77
2023/06/13 01:57:16;;;;;;;0.00;0.00;;;;;;;;;;6162919;23;20499;-77
2023/06/13 02:00:03;;;;;;;0.00;0.00;;;;;;;;;;6161703;23;20104;-77
2023/06/13 02:03:00;;;;;;;0.00;0.00;;;;;;;;;;6162925;23;20442;-78
2023/06/13 02:05:47;;;;;;;0.08;0.00;;;;;;;;;;6161566;23;20024;-78
2023/06/13 02:08:34;;;;;;;0.00;0.00;;;;;;;;;;6162408;23;20179;-77
2023/06/13 02:11:20;;;;;;;0.00;0.00;;;;;;;;;;6163705;23;20107;-77
2023/06/13 02:14:06;;;;;;;0.00;0.00;;;;;;;;;;6161871;23;20025;-77
2023/06/13 02:16:52;;;;;;;0.00;0.00;;;;;;;;;;6161686;23;20070;-77
2023/06/13 02:19:37;;;;;;;0.00;0.00;;;;;;;;;;6162198;23;20029;-77
2023/06/13 02:22:23;;;;;;;0.00;0.00;;;;;;;;;;6161982;23;20016;-77
2023/06/13 02:25:09;;;;;;;0.00;0.00;;;;;;;;;;6162501;23;20766;-78
2023/06/13 02:27:55;;;;;;;0.00;0.00;;;;;;;;;;6159842;23;20522;-77
2023/06/13 02:30:40;;;;;;;0.32;0.10;;;;;;;;;;6161728;23;20035;-77
2023/06/13 02:33:30;;;;;;;0.00;0.00;;;;;;;;;;6162913;23;20020;-77
2023/06/13 02:36:15;;;;;;;0.00;0.00;;;;;;;;;;6162603;23;20635;-77
2023/06/13 02:39:02;;;;;;;0.00;0.00;;;;;;;;;;6162778;23;20465;-77
2023/06/13 02:41:48;;;;;;;0.00;0.00;;;;;;;;;;6162376;23;20451;-77
2023/06/13 02:44:34;;;;;;;0.00;0.00;;;;;;;;;;6162332;23;20718;-78
2023/06/13 02:47:21;;;;;;;0.05;0.05;;;;;;;;;;6163138;23;20012;-77
2023/06/13 02:50:07;;;;;;;0.00;0.00;;;;;;;;;;6161599;23;20112;-77
2023/06/13 02:52:52;;;;;;;0.00;0.00;;;;;;;;;;6160847;23;20017;-77
2023/06/13 02:55:38;;;;;;;0.00;0.00;;;;;;;;;;6162417;23;20016;-77
2023/06/13 02:58:24;;;;;;;0.00;0.00;;;;;;;;;;6162100;23;20021;-77
2023/06/13 03:01:12;;;;;;;0.03;0.03;;;;;;;;;;6161383;23;20051;-77
2023/06/13 03:03:58;;;;;;;0.10;0.10;;;;;;;;;;6139669;23;20028;-77
2023/06/13 03:06:44;;;;;;;0.00;0.00;;;;;;;;;;6162476;23;20021;-77
2023/06/13 03:09:34;;;;;;;0.00;0.00;;;;;;;;;;6143247;23;20021;-77
2023/06/13 03:12:19;;;;;;;0.10;0.10;;;;;;;;;;6162429;23;21029;-77
2023/06/13 03:15:09;;;;;;;0.00;0.00;;;;;;;;;;6159868;23;20198;-77
2023/06/13 03:17:56;;;;;;;0.00;0.00;;;;;;;;;;6160093;23;20591;-77
2023/06/13 03:20:46;;;;;;;0.00;0.00;;;;;;;;;;6161651;23;20044;-77
2023/06/13 03:23:34;;;;;;;0.00;0.00;;;;;;;;;;6161684;23;20044;-77
2023/06/13 03:26:22;;;;;;;0.10;0.10;;;;;;;;;;6161389;23;20016;-78
2023/06/13 03:29:10;;;;;;;0.00;0.00;;;;;;;;;;6160337;23;20740;-77
2023/06/13 03:31:55;;;;;;;0.00;0.00;;;;;;;;;;6159167;23;20021;-77
2023/06/13 03:34:43;;;;;;;0.00;0.00;;;;;;;;;;6162436;23;20021;-77
2023/06/13 03:37:31;;;;;;;0.00;0.00;;;;;;;;;;6143015;23;20017;-77
2023/06/13 03:40:17;;;;;;;0.00;0.00;;;;;;;;;;6161114;23;20627;-77
2023/06/13 03:43:02;;;;;;;0.00;0.00;;;;;;;;;;6161846;23;20017;-77
2023/06/13 03:45:48;;;;;;;0.00;0.00;;;;;;;;;;6159899;23;20040;-77
2023/06/13 03:48:36;;;;;;;0.00;0.00;;;;;;;;;;6161672;23;20088;-77
2023/06/13 03:51:21;;;;;;;0.00;0.00;;;;;;;;;;6162237;23;20155;-78
2023/06/13 03:54:07;;;;;;;0.00;0.00;;;;;;;;;;6163207;23;20170;-79
2023/06/13 03:56:53;;;;;;;0.00;0.00;;;;;;;;;;6160354;23;20095;-79
2023/06/13 03:59:39;;;;;;;0.10;0.10;;;;;;;;;;6162064;23;20110;-78
2023/06/13 04:02:25;;;;;;;0.00;0.00;;;;;;;;;;6163015;23;20019;-79
2023/06/13 04:05:12;;;;;;;0.10;0.10;;;;;;;;;;6161858;23;20013;-79
2023/06/13 04:07:58;;;;;;;0.10;0.10;;;;;;;;;;6161759;23;20558;-80
2023/06/13 04:10:43;;;;;;;0.03;0.03;;;;;;;;;;6163859;23;20072;-79
2023/06/13 04:13:29;;;;;;;0.00;0.00;;;;;;;;;;6163291;23;20029;-79
2023/06/13 04:16:15;;;;;;;0.00;0.00;;;;;;;;;;6162072;23;20013;-79
2023/06/13 04:19:01;;;;;;;0.10;0.10;;;;;;;;;;6161761;23;20454;-79
2023/06/13 04:21:47;;;;;;;0.00;0.00;;;;;;;;;;6162853;23;20047;-79
2023/06/13 04:24:33;;;;;;;0.00;0.00;;;;;;;;;;6162758;23;20017;-79
2023/06/13 04:27:19;;;;;;;0.08;0.08;;;;;;;;;;6162796;23;20056;-79
2023/06/13 04:30:06;;;;;;;0.00;0.00;;;;;;;;;;6162236;23;20761;-79
2023/06/13 04:32:51;;;;;;;0.00;0.00;;;;;;;;;;6161971;23;20801;-79
2023/06/13 04:35:37;;;;;;;0.00;0.00;;;;;;;;;;6162378;23;20024;-79
2023/06/13 04:38:24;;;;;;;0.00;0.00;;;;;;;;;;6163358;23;20743;-79
2023/06/13 04:41:13;;;;;;;0.00;0.00;;;;;;;;;;6161457;23;20017;-79
2023/06/13 04:43:59;;;;;;;0.10;0.10;;;;;;;;;;6162586;23;20017;-79
2023/06/13 04:46:44;;;;;;;0.10;0.10;;;;;;;;;;6163203;23;20564;-78
2023/06/13 04:49:30;;;;;;;0.10;0.10;;;;;;;;;;6163876;23;20017;-78
2023/06/13 04:52:18;;;;;;;0.10;0.10;;;;;;;;;;6163849;23;20446;-78
2023/06/13 04:55:04;;;;;;;0.00;0.00;;;;;;;;;;6162038;23;20443;-79
2023/06/13 04:57:51;;;;;;;0.00;0.00;;;;;;;;;;6161696;23;20024;-78
2023/06/13 05:00:36;;;;;;;0.00;0.00;;;;;;;;;;6164278;23;20009;-78
2023/06/13 05:03:23;;;;;;;0.10;0.10;;;;;;;;;;6167317;23;20040;-78
2023/06/13 05:06:09;;;;;;;0.00;0.00;;;;;;;;;;6164026;23;20506;-78
2023/06/13 05:08:56;;;;;;;0.08;0.08;;;;;;;;;;6162796;23;20020;-78
2023/06/13 05:11:42;;;;;;;0.00;0.00;;;;;;;;;;6165406;23;20009;-78
2023/06/13 05:14:29;;;;;;;0.00;0.00;;;;;;;;;;6165892;23;20020;-79
2023/06/13 05:17:14;;;;;;;0.10;0.10;;;;;;;;;;6165272;23;20407;-78
2023/06/13 05:20:00;;;;;;;0.00;0.00;;;;;;;;;;6165805;23;20020;-78
2023/06/13 05:22:46;;;;;;;0.00;0.00;;;;;;;;;;6169135;23;20024;-78
2023/06/13 05:25:32;;;;;;;0.10;0.10;;;;;;;;;;6165531;23;20013;-78
2023/06/13 05:28:18;;;;;;;0.10;0.10;;;;;;;;;;6165584;23;20099;-79
2023/06/13 05:31:04;;;;;;;0.10;0.10;;;;;;;;;;6162543;23;20048;-78
2023/06/13 05:33:50;;;;;;;0.20;0.20;;;;;;;;;;6166687;23;20092;-79
2023/06/13 05:36:35;;;;;;;0.25;0.25;;;;;;;;;;6162842;23;20032;-79
2023/06/13 05:39:21;;;;;;;0.52;0.52;;;;;;;;;;6164050;23;20013;-79
2023/06/13 05:42:07;;;;;;;0.00;0.00;;;;;;;;;;6165204;23;20630;-79
2023/06/13 05:44:53;;;;;;;0.10;0.10;;;;;;;;;;6168466;23;20333;-78
2023/06/13 05:47:38;;;;;;;0.08;0.08;;;;;;;;;;6165655;23;20088;-79
2023/06/13 05:50:24;;;;;;;0.08;0.08;;;;;;;;;;6165625;23;20233;-79
2023/06/13 05:53:10;;;;;;;0.05;0.05;;;;;;;;;;6165848;23;20465;-79
2023/06/13 05:55:55;;;;;;;0.10;0.10;;;;;;;;;;6163546;23;20013;-79
2023/06/13 05:58:41;;;;;;;0.10;0.10;;;;;;;;;;6164601;23;20025;-79
2023/06/13 06:01:29;;;;;;;0.00;0.00;;;;;;;;;;6164763;23;20071;-79
2023/06/13 06:04:14;;;;;;;0.10;0.10;;;;;;;;;;6165672;23;20017;-79
2023/06/13 06:07:00;;;;;;;0.00;0.00;;;;;;;;;;6162334;23;20132;-79
2023/06/13 06:09:46;;;;;;;0.00;0.00;;;;;;;;;;6164626;23;20405;-79
2023/06/13 06:12:32;;;;;;;0.00;0.00;;;;;;;;;;6165943;23;20021;-79
2023/06/13 06:15:17;;;;;;;0.10;0.10;;;;;;;;;;6165423;23;20378;-78
2023/06/13 06:18:03;;;;;;;0.00;0.00;;;;;;;;;;6163308;23;20458;-79
2023/06/13 06:20:49;;;;;;;0.10;0.10;;;;;;;;;;6163875;23;20025;-79
2023/06/13 06:23:36;;;;;;;0.10;0.10;;;;;;;;;;6164610;23;20020;-79
2023/06/13 06:26:22;;;;;;;0.00;0.00;;;;;;;;;;6164993;23;20027;-78
2023/06/13 06:29:07;;;;;;;0.00;0.00;;;;;;;;;;6163516;23;20017;-78
2023/06/13 06:31:53;;;;;;;0.55;0.55;;;;;;;;;;6166594;23;20013;-78
2023/06/13 06:34:39;;;;;;;0.03;0.03;;;;;;;;;;6164972;23;20518;-78
2023/06/13 06:37:24;;;;;;;0.10;0.10;;;;;;;;;;6163914;23;20021;-77
2023/06/13 06:40:10;;;;;;;0.10;0.10;;;;;;;;;;6164075;23;20019;-78
2023/06/13 06:42:56;;;;;;;0.00;0.00;;;;;;;;;;6164143;23;20702;-78
2023/06/13 06:45:47;;;;;;;;;;;;;;;;;;6165158;23;20390;-78
2023/06/13 06:48:33;;;;;;;0.10;0.10;;;;;;;;;;6164423;23;19919;-78
2023/06/13 06:51:18;;;;;;;0.00;0.00;;;;;;;;;;6163822;23;20025;-77
2023/06/13 06:54:05;;;;;;;0.10;0.10;;;;;;;;;;6163041;23;20100;-76
2023/06/13 06:56:51;;;;;;;0.00;0.00;;;;;;;;;;6160571;23;20013;-77
2023/06/13 06:59:37;;;;;;;0.08;0.08;;;;;;;;;;6163687;23;20374;-77
2023/06/13 07:02:22;;;;;;;0.03;0.03;;;;;;;;;;6163881;23;20527;-77
2023/06/13 07:05:08;;;;;;;0.05;0.05;;;;;;;;;;6164490;23;20495;-78
2023/06/13 07:07:54;;;;;;;0.10;0.10;;;;;;;;;;6162674;23;20375;-78
2023/06/13 07:10:41;;;;;;;0.03;0.03;;;;;;;;;;6164187;23;20026;-78
2023/06/13 07:13:26;;;;;;;0.10;0.10;;;;;;;;;;6164080;23;20057;-78
2023/06/13 07:16:12;;;;;;;0.10;0.10;;;;;;;;;;6162898;23;20015;-77
2023/06/13 07:18:58;;;;;;;0.10;0.10;;;;;;;;;;6164752;23;20503;-77
2023/06/13 07:21:43;;;;;;;0.00;0.00;;;;;;;;;;6167657;23;20592;-78
2023/06/13 07:24:30;;;;;;;0.00;0.00;;;;;;;;;;6163488;23;20444;-77
2023/06/13 07:27:15;;;;;;;0.10;0.10;;;;;;;;;;6164737;23;20021;-78
2023/06/13 07:30:01;;;;;;;0.10;0.10;;;;;;;;;;6163114;23;20020;-78
2023/06/13 07:32:47;;;;;;;0.10;0.10;;;;;;;;;;6164168;23;20012;-78
2023/06/13 07:35:32;;;;;;;0.10;0.10;;;;;;;;;;6164940;23;20117;-78
2023/06/13 07:38:19;;;;;;;0.00;0.00;;;;;;;;;;6163216;23;20017;-78
2023/06/13 07:41:06;;;;;;;0.00;0.00;;;;;;;;;;6162236;23;20079;-78
2023/06/13 07:43:51;;;;;;;0.10;0.10;;;;;;;;;;6162652;23;20194;-79
2023/06/13 07:46:37;;;;;;;0.00;0.00;;;;;;;;;;6164012;23;20706;-78
2023/06/13 07:49:23;;;;;;;0.00;0.00;;;;;;;;;;6163517;23;20020;-77
2023/06/13 07:52:09;;;;;;;0.00;0.00;;;;;;;;;;6163558;23;20322;-78
2023/06/13 07:54:55;;;;;;;0.00;0.00;;;;;;;;;;6164097;23;20402;-77
2023/06/13 07:57:40;;;;;;;0.00;0.00;;;;;;;;;;6163530;23;20800;-79
2023/06/13 08:00:26;;;;;;;0.00;0.00;;;;;;;;;;6163103;23;20416;-78
2023/06/13 08:03:12;;;;;;;0.10;0.10;;;;;;;;;;6164208;23;20024;-78
2023/06/13 08:05:57;;;;;;;0.10;0.10;;;;;;;;;;6165997;23;20207;-77
2023/06/13 08:08:43;;;;;;;0.10;0.10;;;;;;;;;;6162724;23;20100;-77
2023/06/13 08:11:29;;;;;;;0.00;0.00;;;;;;;;;;6164454;23;20056;-78
2023/06/13 08:14:15;;;;;;;0.10;0.10;;;;;;;;;;6164065;23;20107;-78
2023/06/13 08:17:04;;;;;;;0.00;0.00;;;;;;;;;;6164592;23;20059;-77
2023/06/13 08:19:50;;;;;;;0.00;0.00;;;;;;;;;;6164319;23;20024;-79
2023/06/13 08:22:39;;;;;;;0.00;0.00;;;;;;;;;;6162219;23;20019;-78
2023/06/13 08:25:25;;;;;;;0.00;0.00;;;;;;;;;;6162917;23;20039;-79
2023/06/13 08:28:13;;;;;;;0.00;0.00;;;;;;;;;;6161891;23;20021;-78
2023/06/13 08:30:58;;;;;;;0.05;0.05;;;;;;;;;;6161583;23;20414;-78
2023/06/13 08:33:45;;;;;;;0.00;0.00;;;;;;;;;;6163991;23;20533;-78
2023/06/13 08:36:31;;;;;;;0.08;0.08;;;;;;;;;;6163692;23;20415;-78
2023/06/13 08:39:17;;;;;;;0.00;0.00;;;;;;;;;;6163174;23;20071;-77
2023/06/13 08:42:02;;;;;;;0.05;0.05;;;;;;;;;;6161302;23;20016;-79
2023/06/13 08:44:49;;;;;;;0.00;0.00;;;;;;;;;;6163087;23;20023;-78
2023/06/13 08:47:35;;;;;;;0.10;0.10;;;;;;;;;;6163342;23;20039;-78
2023/06/13 08:50:24;;;;;;;0.00;0.00;;;;;;;;;;6163369;23;20116;-78
2023/06/13 08:53:10;;;;;;;0.00;0.00;;;;;;;;;;6163232;23;20277;-78
2023/06/13 08:55:58;;;;;;;0.00;0.00;;;;;;;;;;6162471;23;20070;-78
2023/06/13 08:58:45;;;;;;;0.10;0.10;;;;;;;;;;6163369;23;20040;-77
2023/06/13 09:01:32;;;;;;;0.10;0.10;;;;;;;;;;6162696;23;20270;-78
2023/06/13 09:04:18;;;;;;;0.00;0.00;;;;;;;;;;6163485;23;20013;-79
2023/06/13 09:07:06;;;;;;;0.00;0.00;;;;;;;;;;6160951;23;20021;-80
2023/06/13 09:09:51;;;;;;;0.00;0.00;;;;;;;;;;6162952;23;20529;-80
2023/06/13 09:12:41;;;;;;;0.00;0.00;;;;;;;;;;6163044;23;20398;-78
2023/06/13 09:15:27;;;;;;;0.00;0.00;;;;;;;;;;6163821;23;20017;-78
2023/06/13 09:18:14;;;;;;;0.00;0.00;;;;;;;;;;6161590;23;20021;-78
2023/06/13 09:21:00;;;;;;;0.00;0.00;;;;;;;;;;6162663;23;20191;-80
2023/06/13 09:23:49;;;;;;;0.00;0.00;;;;;;;;;;6161108;23;20020;-79
2023/06/13 09:26:35;;;;;;;0.00;0.00;;;;;;;;;;6163717;23;20021;-78
2023/06/13 09:29:30;;;;;;;0.00;0.00;;;;;;;;;;6162849;23;20174;-78
2023/06/13 09:32:18;;;;;;;0.10;0.10;;;;;;;;;;6161232;23;20013;-78
2023/06/13 09:35:03;;;;;;;0.10;0.10;;;;;;;;;;6161892;23;20044;-78
2023/06/13 09:37:50;;;;;;;0.00;0.00;;;;;;;;;;6162862;23;20025;-78
2023/06/13 09:40:36;;;;;;;0.00;0.00;;;;;;;;;;6163105;23;20017;-78
2023/06/13 09:43:22;;;;;;;0.10;0.10;;;;;;;;;;6163353;23;20528;-78
2023/06/13 09:46:09;;;;;;;0.00;0.00;;;;;;;;;;6162636;23;20067;-78
2023/06/13 09:48:55;;;;;;;0.10;0.10;;;;;;;;;;6162878;23;20370;-78
2023/06/13 09:51:41;;;;;;;0.08;0.08;;;;;;;;;;6164077;23;20017;-79
2023/06/13 09:54:29;;;;;;;0.10;0.10;;;;;;;;;;6164215;23;20370;-78
2023/06/13 09:57:15;;;;;;;0.05;0.05;;;;;;;;;;6163752;23;20044;-79
2023/06/13 10:00:00;;;;;;;0.10;0.10;;;;;;;;;;6163937;23;20342;-78
2023/06/13 10:02:46;;;;;;;0.10;0.10;;;;;;;;;;6164657;23;20009;-78
2023/06/13 10:05:32;;;;;;;0.00;0.00;;;;;;;;;;6164863;23;20017;-78
2023/06/13 10:08:19;;;;;;;0.00;0.00;;;;;;;;;;6164022;23;20027;-79
2023/06/13 10:11:18;;;;;;;0.10;0.10;;;;;;;;;;6165867;23;20255;-78
2023/06/13 10:14:08;;;;;;;0.10;0.10;;;;;;;;;;6161003;23;20020;-78
2023/06/13 10:16:59;;;;;;;0.00;0.00;;;;;;;;;;6163223;23;20208;-79
2023/06/13 10:19:47;;;;;;;0.00;0.00;;;;;;;;;;6164009;23;20404;-77
2023/06/13 10:22:34;;;;;;;0.00;0.00;;;;;;;;;;6163438;23;20040;-78
2023/06/13 10:25:21;;;;;;;0.00;0.00;;;;;;;;;;6164180;23;20035;-78
2023/06/13 10:28:12;;;;;;;0.00;0.00;;;;;;;;;;6163267;23;20108;-80
2023/06/13 10:31:17;;;;;;;0.00;0.00;;;;;;;;;;6162831;23;20719;-78
2023/06/13 10:34:21;;;;;;;0.00;0.00;;;;;;;;;;6163231;23;20017;-79
2023/06/13 10:37:21;;;;;;;0.00;0.00;;;;;;;;;;6163828;23;20013;-79
2023/06/13 10:40:13;;;;;;;0.10;0.10;;;;;;;;;;6163184;23;20620;-79
2023/06/13 10:43:12;;;;;;;0.00;0.00;;;;;;;;;;6163023;23;20013;-78
2023/06/13 10:45:58;;;;;;;0.10;0.10;;;;;;;;;;6162855;23;20009;-79
2023/06/13 10:48:51;;;;;;;0.10;0.10;;;;;;;;;;6160385;23;20029;-78
2023/06/13 10:51:37;;;;;;;0.10;0.10;;;;;;;;;;6163636;23;20143;-79
2023/06/13 10:54:25;;;;;;;0.10;0.10;;;;;;;;;;6163235;23;20536;-78
2023/06/13 10:57:10;;;;;;;0.10;0.10;;;;;;;;;;6161686;23;20348;-79
2023/06/13 10:59:56;;;;;;;0.00;0.00;;;;;;;;;;6162548;23;20096;-79
2023/06/13 11:02:44;;;;;;;0.10;0.10;;;;;;;;;;6163073;23;20485;-78
2023/06/13 11:05:47;;;;;;;0.03;0.03;;;;;;;;;;6119029;23;20454;-78
2023/06/13 11:08:33;;;;;;;0.10;0.10;;;;;;;;;;6163309;23;20587;-78
2023/06/13 11:11:22;;;;;;;0.10;0.10;;;;;;;;;;6163937;23;20509;-78
2023/06/13 11:14:08;;;;;;;0.00;0.00;;;;;;;;;;6161892;23;20032;-79
2023/06/13 11:16:54;;;;;;;0.10;0.10;;;;;;;;;;6161760;23;20158;-80
2023/06/13 11:19:40;;;;;;;0.10;0.10;;;;;;;;;;6162677;23;20308;-79
2023/06/13 11:22:26;;;;;;;0.10;0.10;;;;;;;;;;6163714;23;20013;-80
2023/06/13 11:25:11;;;;;;;0.10;0.10;;;;;;;;;;6161806;23;20155;-80
2023/06/13 11:27:58;;;;;;;0.10;0.10;;;;;;;;;;6164442;23;20104;-79
2023/06/13 11:30:44;;;;;;;0.10;0.10;;;;;;;;;;6163813;23;20016;-80
2023/06/13 11:33:34;;;;;;;0.00;0.00;;;;;;;;;;6163202;23;20017;-79
2023/06/13 11:36:20;;;;;;;0.10;0.10;;;;;;;;;;6162766;23;20072;-79
2023/06/13 11:39:09;;;;;;;0.10;0.10;;;;;;;;;;6161839;23;20098;-75
2023/06/13 11:41:56;;;;;;;0.10;0.10;;;;;;;;;;6162192;23;20071;-79
2023/06/13 11:44:42;;;;;;;0.10;0.10;;;;;;;;;;6163048;23;20338;-79
2023/06/13 11:47:28;;;;;;;0.10;0.10;;;;;;;;;;6164006;23;20016;-79
2023/06/13 11:50:14;;;;;;;0.10;0.10;;;;;;;;;;6162938;23;20075;-79
2023/06/13 11:53:09;;;;;;;0.10;0.10;;;;;;;;;;6164059;23;20020;-78
2023/06/13 11:56:04;;;;;;;0.10;0.10;;;;;;;;;;6162255;23;20017;-79
2023/06/13 11:58:50;;;;;;;0.10;0.10;;;;;;;;;;6162684;23;20024;-80
2023/06/13 12:01:36;;;;;;;0.10;0.10;;;;;;;;;;6161731;23;20043;-79
2023/06/13 12:04:22;;;;;;;0.00;0.00;;;;;;;;;;6162324;23;20477;-78
2023/06/13 12:07:08;;;;;;;0.05;0.05;;;;;;;;;;6161327;23;20049;-78
2023/06/13 12:09:53;;;;;;;0.10;0.10;;;;;;;;;;6163043;23;20045;-78
2023/06/13 12:12:39;;;;;;;0.00;0.00;;;;;;;;;;6161953;23;20025;-79
2023/06/13 12:15:26;;;;;;;0.10;0.10;;;;;;;;;;6162272;23;20021;-78
2023/06/13 12:18:12;;;;;;;0.10;0.10;;;;;;;;;;6161646;23;20017;-78
2023/06/13 12:20:58;;;;;;;0.10;0.10;;;;;;;;;;6161390;23;20416;-78
2023/06/13 12:23:43;;;;;;;0.10;0.10;;;;;;;;;;6162553;23;20506;-78
2023/06/13 12:26:33;;;;;;;0.10;0.10;;;;;;;;;;6117089;23;20027;-79
2023/06/13 12:29:24;;;;;;;0.10;0.10;;;;;;;;;;6160069;23;20013;-79
2023/06/13 12:32:11;;;;;;;0.10;0.10;;;;;;;;;;6159647;23;20029;-79
2023/06/13 12:34:56;;;;;;;0.10;0.10;;;;;;;;;;6161565;23;20373;-80
2023/06/13 12:37:42;;;;;;;0.00;0.00;;;;;;;;;;6162762;23;20028;-81
2023/06/13 12:40:32;;;;;;;0.00;0.00;;;;;;;;;;6161616;23;20044;-79
2023/06/13 12:43:38;;;;;;;0.10;0.10;;;;;;;;;;6161066;23;20071;-80
2023/06/13 12:46:24;;;;;;;0.10;0.10;;;;;;;;;;6164726;23;20521;-80
2023/06/13 12:49:12;;;;;;;0.10;0.10;;;;;;;;;;6161836;23;20398;-79
2023/06/13 12:51:58;;;;;;;0.70;0.70;;;;;;;;;;6160753;23;20237;-79
2023/06/13 12:54:44;;;;;;;0.03;0.03;;;;;;;;;;6162783;23;20511;-81
2023/06/13 12:57:29;;;;;;;0.10;0.10;;;;;;;;;;6161642;23;20032;-80
2023/06/13 13:00:18;;;;;;;0.10;0.10;;;;;;;;;;6160484;23;20430;-80
2023/06/13 13:03:05;;;;;;;0.00;0.00;;;;;;;;;;6160299;23;20017;-79
2023/06/13 13:05:50;;;;;;;0.10;0.10;;;;;;;;;;6161915;23;20013;-81
2023/06/13 13:08:37;;;;;;;0.00;0.00;;;;;;;;;;6162084;23;20068;-81
2023/06/13 13:11:22;;;;;;;0.10;0.10;;;;;;;;;;6161877;23;20539;-80
2023/06/13 13:14:08;;;;;;;0.00;0.00;;;;;;;;;;6161477;23;20021;-80
2023/06/13 13:16:55;;;;;;;0.10;0.10;;;;;;;;;;6161438;23;20048;-80
2023/06/13 13:19:40;;;;;;;0.00;0.00;;;;;;;;;;6161444;23;20215;-81
2023/06/13 13:22:26;;;;;;;0.10;0.10;;;;;;;;;;6163168;23;20013;-81
2023/06/13 13:25:12;;;;;;;0.08;0.08;;;;;;;;;;6166139;23;20089;-80
2023/06/13 13:27:57;;;;;;;0.10;0.10;;;;;;;;;;6126215;23;20403;-80
2023/06/13 13:30:44;;;;;;;0.10;0.10;;;;;;;;;;6162735;23;20024;-80
2023/06/13 13:33:30;;;;;;;0.10;0.10;;;;;;;;;;6164157;23;20021;-81
2023/06/13 13:36:16;;;;;;;0.10;0.10;;;;;;;;;;6162765;23;20014;-80
2023/06/13 13:39:02;;;;;;;0.00;0.00;;;;;;;;;;6163405;23;20423;-81
2023/06/13 13:41:48;;;;;;;0.10;0.10;;;;;;;;;;6163741;23;20045;-80
2023/06/13 13:44:34;;;;;;;0.10;0.10;;;;;;;;;;6164612;23;20017;-81
2023/06/13 13:47:19;;;;;;;0.10;0.10;;;;;;;;;;6165767;23;20232;-81
2023/06/13 13:50:05;;;;;;;0.10;0.10;;;;;;;;;;6162925;23;20442;-80
2023/06/13 13:52:52;;;;;;;0.00;0.00;;;;;;;;;;6163469;23;20017;-81
2023/06/13 13:55:37;;;;;;;0.03;0.03;;;;;;;;;;6164497;23;20017;-80
2023/06/13 13:58:23;;;;;;;0.10;0.10;;;;;;;;;;6163653;23;20442;-81
2023/06/13 14:01:09;;;;;;;0.10;0.10;;;;;;;;;;6163798;23;20314;-81
2023/06/13 14:03:55;;;;;;;0.10;0.10;;;;;;;;;;6163979;23;20013;-80
2023/06/13 14:06:41;;;;;;;0.10;0.10;;;;;;;;;;6163876;23;20020;-81
2023/06/13 14:09:27;;;;;;;0.10;0.10;;;;;;;;;;6164279;23;20023;-81
2023/06/13 14:12:12;;;;;;;0.10;0.10;;;;;;;;;;6162587;23;20025;-80
2023/06/13 14:14:58;;;;;;;0.10;0.10;;;;;;;;;;6161675;23;20088;-82
2023/06/13 14:17:44;;;;;;;0.00;0.00;;;;;;;;;;6164861;23;20021;-81
2023/06/13 14:20:30;;;;;;;0.00;0.00;;;;;;;;;;6164270;23;20021;-82
2023/06/13 14:23:18;;;;;;;0.10;0.10;;;;;;;;;;6162582;23;20009;-81
2023/06/13 14:26:04;;;;;;;0.10;0.10;;;;;;;;;;6163432;23;20260;-80
2023/06/13 14:28:50;;;;;;;0.10;0.10;;;;;;;;;;6163671;23;20129;-81
2023/06/13 14:31:35;;;;;;;0.00;0.00;;;;;;;;;;6163756;23;20023;-81
2023/06/13 14:34:21;;;;;;;0.10;0.10;;;;;;;;;;6161980;23;20017;-81
2023/06/13 14:37:07;;;;;;;0.10;0.10;;;;;;;;;;6162803;23;20119;-81
2023/06/13 14:39:53;;;;;;;0.10;0.10;;;;;;;;;;6164064;23;20059;-81
2023/06/13 14:42:38;;;;;;;0.00;0.00;;;;;;;;;;6163900;23;20096;-80
2023/06/13 14:45:25;;;;;;;0.00;0.00;;;;;;;;;;6163675;23;20324;-81
2023/06/13 14:48:12;;;;;;;0.10;0.10;;;;;;;;;;6163483;23;20477;-82
2023/06/13 14:51:01;;;;;;;0.10;0.10;;;;;;;;;;6163349;23;20013;-80
2023/06/13 14:53:47;;;;;;;0.10;0.10;;;;;;;;;;6163601;23;20056;-80
2023/06/13 14:56:32;;;;;;;0.10;0.10;;;;;;;;;;6163123;23;20013;-81
2023/06/13 14:59:18;;;;;;;0.10;0.10;;;;;;;;;;6164199;23;20068;-82
2023/06/13 15:02:04;;;;;;;0.10;0.10;;;;;;;;;;6159959;23;20390;-81
2023/06/13 15:04:49;;;;;;;0.00;0.00;;;;;;;;;;6165503;23;20021;-80
2023/06/13 15:07:35;;;;;;;0.10;0.10;;;;;;;;;;6161745;23;20087;-80
2023/06/13 15:10:21;;;;;;;0.38;0.38;;;;;;;;;;6161791;23;20250;-80
2023/06/13 15:13:06;;;;;;;0.00;0.00;;;;;;;;;;6161825;23;20029;-80
2023/06/13 15:15:52;;;;;;;0.10;0.10;;;;;;;;;;6163771;23;20537;-80
2023/06/13 15:18:38;;;;;;;0.00;0.00;;;;;;;;;;6163484;23;20016;-80
2023/06/13 15:21:24;;;;;;;0.05;0.05;;;;;;;;;;6163576;23;20028;-80
2023/06/13 15:24:10;;;;;;;0.03;0.03;;;;;;;;;;6162007;23;20382;-79
2023/06/13 15:26:56;;;;;;;0.00;0.00;;;;;;;;;;6162439;23;20017;-80
2023/06/13 15:29:42;;;;;;;0.10;0.10;;;;;;;;;;6163355;23;20542;-79
2023/06/13 15:32:28;;;;;;;0.05;0.05;;;;;;;;;;6162882;23;20013;-79
2023/06/13 15:35:14;;;;;;;0.00;0.00;;;;;;;;;;6160761;23;20330;-81
2023/06/13 15:38:00;;;;;;;0.00;0.00;;;;;;;;;;6162503;23;20349;-81
2023/06/13 15:40:45;;;;;;;0.10;0.10;;;;;;;;;;6163906;23;20013;-80
2023/06/13 15:43:31;;;;;;;0.00;0.00;;;;;;;;;;6162946;23;20013;-81
2023/06/13 15:46:19;;;;;;;0.00;0.00;;;;;;;;;;6162372;23;20373;-80
2023/06/13 15:49:05;;;;;;;0.10;0.10;;;;;;;;;;6162250;23;20031;-80
2023/06/13 15:51:51;;;;;;;0.08;0.08;;;;;;;;;;6164308;23;20047;-80
2023/06/13 15:54:36;;;;;;;0.00;0.00;;;;;;;;;;6163262;23;20028;-79
2023/06/13 15:57:22;;;;;;;0.00;0.00;;;;;;;;;;6163822;23;20412;-81
2023/06/13 16:00:08;;;;;;;0.00;0.00;;;;;;;;;;6163509;23;20320;-80
2023/06/13 16:03:00;;;;;;;0.00;0.00;;;;;;;;;;6164385;23;20098;-80
2023/06/13 16:05:45;;;;;;;0.10;0.10;;;;;;;;;;6163679;23;20744;-80
2023/06/13 16:08:31;;;;;;;0.10;0.10;;;;;;;;;;6164120;23;20707;-81
2023/06/13 16:11:17;;;;;;;0.00;0.00;;;;;;;;;;6162354;23;20320;-80
2023/06/13 16:14:04;;;;;;;0.00;0.00;;;;;;;;;;6162337;23;20048;-80
2023/06/13 16:16:50;;;;;;;0.00;0.00;;;;;;;;;;6163616;23;20017;-80
2023/06/13 16:19:35;;;;;;;0.00;0.00;;;;;;;;;;6163785;23;20689;-81
2023/06/13 16:22:21;;;;;;;0.00;0.00;;;;;;;;;;6163256;23;20040;-80
2023/06/13 16:25:07;;;;;;;0.03;0.03;;;;;;;;;;6162481;23;20013;-80
2023/06/13 16:27:53;;;;;;;0.00;0.00;;;;;;;;;;6163828;23;20439;-80
2023/06/13 16:30:39;;;;;;;0.00;0.00;;;;;;;;;;6163790;23;20009;-81
2023/06/13 16:33:25;;;;;;;0.00;0.00;;;;;;;;;;6162785;23;20023;-80
2023/06/13 16:36:10;;;;;;;0.00;0.00;;;;;;;;;;6162528;23;20028;-80
2023/06/13 16:38:56;;;;;;;0.00;0.00;;;;;;;;;;6165859;23;20017;-80
2023/06/13 16:41:42;;;;;;;0.00;0.00;;;;;;;;;;6164038;23;20009;-80